Terminal Aerodrome Forecast
Issued by NWS Charleston, WV

Home | Current Version | Previous Version | Text Only | Print | Product List | Glossary On
Versions: 1 2 3 4 5 6 7 8 9 10 11 12 13 14 15 16 17 18 19 20 21 22 23 24 25 26 27
000
FTUS41 KRLX 290212 AAA
TAFPKB
TAF AMD
KPKB 290212Z 2902/2924 35004KT P6SM OVC015
     FM290600 36003KT P6SM OVC008
     FM291300 02004KT P6SM BKN015
     FM291400 03006KT P6SM BKN020
     FM291700 04007KT P6SM SCT020=

USA.gov is the U.S. government's official web portal to all federal, state and local government web resources and services.